Los Alamitos Army Air Field Los Alamitos US
ICAO: KSLI
IATA: SLI
Category: Medium
Scheduled Services: No

Elevation: 32 ft
TransAlt. 18000 ft.

Airport Communications:
SOCAL APP/DEP:124.65
AFLD OPS ADVSY SVC:126.2
GND:126.95
AASF OPS:41.5
PMSV METRO:23.98
ARCOM OPS:139.05
TWR:123.85

KSLI Zoom In..

If you have problems with the map follow the link
https://www.worldairports.se/pages/airport.php?
ICAO=KSLI

Runways:

(A) RW 04L length 5900 ft width 150 ft
---- / hdg 40

(B) RW 04R length 8000 ft width 200 ft
---- / hdg 40

(C) RW 22L length 8000 ft width 200 ft
---- / hdg 220

(D) RW 22R length 5900 ft width 150 ft
---- / hdg 220

Location; KSLI
Day. 20 / Time. 20.58 Zulu
* Altimeter: 29.90
* Temperature: 13° c. 55.4°f.
* Wind from: 230° Speed 08 kn.
Dewpoint: 06° c.
Visibility: 10 Statute Miles.
Clouds: Few 3500 ft.
Clouds: Overcast 1000 ft.

KSLI 202058Z 23008KT 10SM FEW035 OVC100 13/06 A2990 RMK AO2A SLP128 T01300059 57029


Wind From 230°
Speed 08 kn.

 
 
jpsmedia.com for Web Design worldairports.se 2019   terms of use